sensor_id;sensor_type;location;lat;lon;timestamp;P1;durP1;ratioP1;P2;durP2;ratioP2
68680;SDS011;55836;49.858;6.756;2023-06-19T00:00:20;9.20;;;8.30;;
68680;SDS011;55836;49.858;6.756;2023-06-19T00:02:46;9.03;;;8.13;;
68680;SDS011;55836;49.858;6.756;2023-06-19T00:05:12;8.93;;;8.13;;
68680;SDS011;55836;49.858;6.756;2023-06-19T00:07:38;11.70;;;8.47;;
68680;SDS011;55836;49.858;6.756;2023-06-19T00:10:05;9.33;;;8.33;;
68680;SDS011;55836;49.858;6.756;2023-06-19T00:12:31;9.00;;;8.20;;
68680;SDS011;55836;49.858;6.756;2023-06-19T00:14:57;8.60;;;7.80;;
68680;SDS011;55836;49.858;6.756;2023-06-19T00:17:23;9.67;;;7.97;;
68680;SDS011;55836;49.858;6.756;2023-06-19T00:19:51;9.03;;;7.87;;
68680;SDS011;55836;49.858;6.756;2023-06-19T00:22:17;9.37;;;8.47;;
68680;SDS011;55836;49.858;6.756;2023-06-19T00:24:43;9.47;;;8.67;;
68680;SDS011;55836;49.858;6.756;2023-06-19T00:27:09;9.80;;;8.90;;
68680;SDS011;55836;49.858;6.756;2023-06-19T00:29:35;9.93;;;8.93;;
68680;SDS011;55836;49.858;6.756;2023-06-19T00:32:01;9.50;;;8.60;;
68680;SDS011;55836;49.858;6.756;2023-06-19T00:34:28;9.83;;;8.80;;
68680;SDS011;55836;49.858;6.756;2023-06-19T00:36:54;9.27;;;8.40;;
68680;SDS011;55836;49.858;6.756;2023-06-19T00:39:22;8.97;;;8.17;;
68680;SDS011;55836;49.858;6.756;2023-06-19T00:41:49;9.77;;;8.67;;
68680;SDS011;55836;49.858;6.756;2023-06-19T00:44:15;8.97;;;8.07;;
68680;SDS011;55836;49.858;6.756;2023-06-19T00:46:41;8.80;;;8.00;;
68680;SDS011;55836;49.858;6.756;2023-06-19T00:49:07;9.17;;;8.30;;
68680;SDS011;55836;49.858;6.756;2023-06-19T00:51:33;10.23;;;9.30;;
68680;SDS011;55836;49.858;6.756;2023-06-19T00:53:59;11.50;;;9.30;;
68680;SDS011;55836;49.858;6.756;2023-06-19T00:56:25;9.83;;;8.83;;
68680;SDS011;55836;49.858;6.756;2023-06-19T00:58:52;9.73;;;8.73;;
68680;SDS011;55836;49.858;6.756;2023-06-19T01:01:19;10.77;;;8.87;;
68680;SDS011;55836;49.858;6.756;2023-06-19T01:03:46;10.77;;;9.23;;
68680;SDS011;55836;49.858;6.756;2023-06-19T01:06:13;10.53;;;9.53;;
68680;SDS011;55836;49.858;6.756;2023-06-19T01:08:51;10.40;;;9.33;;
68680;SDS011;55836;49.858;6.756;2023-06-19T01:11:21;11.10;;;10.10;;
68680;SDS011;55836;49.858;6.756;2023-06-19T01:13:50;12.07;;;9.67;;
68680;SDS011;55836;49.858;6.756;2023-06-19T01:16:19;10.87;;;9.77;;
68680;SDS011;55836;49.858;6.756;2023-06-19T01:18:45;11.27;;;10.17;;
68680;SDS011;55836;49.858;6.756;2023-06-19T01:21:12;13.63;;;10.60;;
68680;SDS011;55836;49.858;6.756;2023-06-19T01:23:38;10.33;;;9.20;;
68680;SDS011;55836;49.858;6.756;2023-06-19T01:26:05;10.83;;;9.77;;
68680;SDS011;55836;49.858;6.756;2023-06-19T01:28:32;10.87;;;9.90;;
68680;SDS011;55836;49.858;6.756;2023-06-19T01:30:58;10.57;;;9.20;;
68680;SDS011;55836;49.858;6.756;2023-06-19T01:33:26;9.50;;;8.60;;
68680;SDS011;55836;49.858;6.756;2023-06-19T01:35:53;9.53;;;8.63;;
68680;SDS011;55836;49.858;6.756;2023-06-19T01:38:21;9.00;;;8.10;;
68680;SDS011;55836;49.858;6.756;2023-06-19T01:40:50;8.60;;;7.73;;
68680;SDS011;55836;49.858;6.756;2023-06-19T01:43:17;9.20;;;7.90;;
68680;SDS011;55836;49.858;6.756;2023-06-19T01:45:44;8.53;;;7.63;;
68680;SDS011;55836;49.858;6.756;2023-06-19T01:48:10;7.97;;;7.27;;
68680;SDS011;55836;49.858;6.756;2023-06-19T01:50:36;7.60;;;6.90;;
68680;SDS011;55836;49.858;6.756;2023-06-19T01:53:02;7.40;;;6.63;;
68680;SDS011;55836;49.858;6.756;2023-06-19T01:55:28;7.70;;;6.90;;
68680;SDS011;55836;49.858;6.756;2023-06-19T01:57:54;7.30;;;6.60;;
68680;SDS011;55836;49.858;6.756;2023-06-19T02:00:20;7.37;;;6.57;;
68680;SDS011;55836;49.858;6.756;2023-06-19T02:02:47;7.80;;;6.97;;
68680;SDS011;55836;49.858;6.756;2023-06-19T02:05:13;7.50;;;6.80;;
68680;SDS011;55836;49.858;6.756;2023-06-19T02:07:40;8.27;;;7.43;;
68680;SDS011;55836;49.858;6.756;2023-06-19T02:10:06;8.30;;;7.07;;
68680;SDS011;55836;49.858;6.756;2023-06-19T02:12:33;7.77;;;7.07;;
68680;SDS011;55836;49.858;6.756;2023-06-19T02:14:59;7.27;;;6.57;;
68680;SDS011;55836;49.858;6.756;2023-06-19T02:17:25;8.07;;;7.27;;
68680;SDS011;55836;49.858;6.756;2023-06-19T02:19:51;10.63;;;7.80;;
68680;SDS011;55836;49.858;6.756;2023-06-19T02:22:17;7.80;;;7.10;;
68680;SDS011;55836;49.858;6.756;2023-06-19T02:24:44;8.13;;;7.17;;
68680;SDS011;55836;49.858;6.756;2023-06-19T02:27:10;8.13;;;7.33;;
68680;SDS011;55836;49.858;6.756;2023-06-19T02:29:36;8.07;;;7.27;;
68680;SDS011;55836;49.858;6.756;2023-06-19T02:32:02;7.57;;;6.87;;
68680;SDS011;55836;49.858;6.756;2023-06-19T02:34:28;8.50;;;7.70;;
68680;SDS011;55836;49.858;6.756;2023-06-19T02:36:54;8.00;;;7.03;;
68680;SDS011;55836;49.858;6.756;2023-06-19T02:39:20;8.03;;;7.30;;
68680;SDS011;55836;49.858;6.756;2023-06-19T02:41:48;8.60;;;7.73;;
68680;SDS011;55836;49.858;6.756;2023-06-19T02:44:14;8.63;;;6.90;;
68680;SDS011;55836;49.858;6.756;2023-06-19T02:46:40;8.37;;;7.60;;
68680;SDS011;55836;49.858;6.756;2023-06-19T02:49:06;7.83;;;7.10;;
68680;SDS011;55836;49.858;6.756;2023-06-19T02:51:32;7.67;;;7.07;;
68680;SDS011;55836;49.858;6.756;2023-06-19T02:54:01;7.83;;;6.93;;
68680;SDS011;55836;49.858;6.756;2023-06-19T02:56:27;8.73;;;7.33;;
68680;SDS011;55836;49.858;6.756;2023-06-19T02:58:53;7.57;;;5.97;;
68680;SDS011;55836;49.858;6.756;2023-06-19T03:01:20;7.80;;;7.07;;
68680;SDS011;55836;49.858;6.756;2023-06-19T03:03:46;6.93;;;6.30;;
68680;SDS011;55836;49.858;6.756;2023-06-19T03:06:12;6.73;;;6.13;;
68680;SDS011;55836;49.858;6.756;2023-06-19T03:08:39;7.07;;;6.17;;
68680;SDS011;55836;49.858;6.756;2023-06-19T03:11:05;7.30;;;6.60;;
68680;SDS011;55836;49.858;6.756;2023-06-19T03:13:50;6.57;;;5.97;;
68680;SDS011;55836;49.858;6.756;2023-06-19T03:16:16;7.33;;;6.63;;
68680;SDS011;55836;49.858;6.756;2023-06-19T03:18:42;7.27;;;6.57;;
68680;SDS011;55836;49.858;6.756;2023-06-19T03:21:12;6.97;;;6.30;;
68680;SDS011;55836;49.858;6.756;2023-06-19T03:23:38;7.67;;;6.97;;
68680;SDS011;55836;49.858;6.756;2023-06-19T03:26:06;7.20;;;6.47;;
68680;SDS011;55836;49.858;6.756;2023-06-19T03:28:32;8.13;;;6.40;;
68680;SDS011;55836;49.858;6.756;2023-06-19T03:30:58;7.27;;;6.57;;
68680;SDS011;55836;49.858;6.756;2023-06-19T03:33:24;7.03;;;6.43;;
68680;SDS011;55836;49.858;6.756;2023-06-19T03:35:50;7.33;;;6.63;;
68680;SDS011;55836;49.858;6.756;2023-06-19T03:38:16;7.00;;;6.30;;
68680;SDS011;55836;49.858;6.756;2023-06-19T03:40:42;7.10;;;6.40;;
68680;SDS011;55836;49.858;6.756;2023-06-19T03:43:08;6.37;;;5.70;;
68680;SDS011;55836;49.858;6.756;2023-06-19T03:45:35;6.53;;;5.83;;
68680;SDS011;55836;49.858;6.756;2023-06-19T03:48:01;6.20;;;5.60;;
68680;SDS011;55836;49.858;6.756;2023-06-19T03:50:27;7.60;;;6.57;;
68680;SDS011;55836;49.858;6.756;2023-06-19T03:52:53;6.37;;;5.67;;
68680;SDS011;55836;49.858;6.756;2023-06-19T03:55:19;7.27;;;6.07;;
68680;SDS011;55836;49.858;6.756;2023-06-19T03:57:45;7.70;;;5.33;;
68680;SDS011;55836;49.858;6.756;2023-06-19T04:00:12;6.70;;;6.00;;
68680;SDS011;55836;49.858;6.756;2023-06-19T04:02:39;5.40;;;4.90;;
68680;SDS011;55836;49.858;6.756;2023-06-19T04:05:06;5.63;;;5.03;;
68680;SDS011;55836;49.858;6.756;2023-06-19T04:07:32;6.00;;;5.40;;
68680;SDS011;55836;49.858;6.756;2023-06-19T04:09:58;6.07;;;5.13;;
68680;SDS011;55836;49.858;6.756;2023-06-19T04:12:24;6.53;;;5.80;;
68680;SDS011;55836;49.858;6.756;2023-06-19T04:14:50;6.87;;;5.30;;
68680;SDS011;55836;49.858;6.756;2023-06-19T04:17:17;5.87;;;5.27;;
68680;SDS011;55836;49.858;6.756;2023-06-19T04:19:43;5.93;;;5.20;;
68680;SDS011;55836;49.858;6.756;2023-06-19T04:22:08;6.63;;;4.67;;
68680;SDS011;55836;49.858;6.756;2023-06-19T04:24:35;5.80;;;5.20;;
68680;SDS011;55836;49.858;6.756;2023-06-19T04:27:01;6.27;;;5.30;;
68680;SDS011;55836;49.858;6.756;2023-06-19T04:29:27;7.10;;;5.53;;
68680;SDS011;55836;49.858;6.756;2023-06-19T04:31:56;6.70;;;5.40;;
68680;SDS011;55836;49.858;6.756;2023-06-19T04:34:22;5.87;;;5.37;;
68680;SDS011;55836;49.858;6.756;2023-06-19T04:36:48;7.87;;;5.67;;
68680;SDS011;55836;49.858;6.756;2023-06-19T04:39:14;6.40;;;5.80;;
68680;SDS011;55836;49.858;6.756;2023-06-19T04:41:42;7.10;;;5.77;;
68680;SDS011;55836;49.858;6.756;2023-06-19T04:44:09;6.60;;;5.67;;
68680;SDS011;55836;49.858;6.756;2023-06-19T04:46:36;7.03;;;6.17;;
68680;SDS011;55836;49.858;6.756;2023-06-19T04:49:03;6.17;;;5.53;;
68680;SDS011;55836;49.858;6.756;2023-06-19T04:51:29;6.43;;;5.83;;
68680;SDS011;55836;49.858;6.756;2023-06-19T04:53:55;7.73;;;5.73;;
68680;SDS011;55836;49.858;6.756;2023-06-19T04:56:21;6.90;;;5.63;;
68680;SDS011;55836;49.858;6.756;2023-06-19T04:58:47;6.90;;;6.20;;
68680;SDS011;55836;49.858;6.756;2023-06-19T05:01:15;6.60;;;5.90;;
68680;SDS011;55836;49.858;6.756;2023-06-19T05:03:42;6.70;;;6.03;;
68680;SDS011;55836;49.858;6.756;2023-06-19T05:06:08;10.37;;;6.00;;
68680;SDS011;55836;49.858;6.756;2023-06-19T05:08:34;7.20;;;6.50;;
68680;SDS011;55836;49.858;6.756;2023-06-19T05:11:00;6.83;;;6.13;;
68680;SDS011;55836;49.858;6.756;2023-06-19T05:13:26;9.07;;;6.47;;
68680;SDS011;55836;49.858;6.756;2023-06-19T05:15:52;7.20;;;6.20;;
68680;SDS011;55836;49.858;6.756;2023-06-19T05:18:20;8.30;;;6.17;;
68680;SDS011;55836;49.858;6.756;2023-06-19T05:20:46;6.70;;;5.93;;
68680;SDS011;55836;49.858;6.756;2023-06-19T05:23:16;6.23;;;5.63;;
68680;SDS011;55836;49.858;6.756;2023-06-19T05:25:42;6.73;;;6.03;;
68680;SDS011;55836;49.858;6.756;2023-06-19T05:28:08;6.63;;;5.83;;
68680;SDS011;55836;49.858;6.756;2023-06-19T05:30:34;6.97;;;6.00;;
68680;SDS011;55836;49.858;6.756;2023-06-19T05:33:00;7.03;;;6.20;;
68680;SDS011;55836;49.858;6.756;2023-06-19T05:35:27;6.97;;;6.17;;
68680;SDS011;55836;49.858;6.756;2023-06-19T05:37:53;8.10;;;6.13;;
68680;SDS011;55836;49.858;6.756;2023-06-19T05:40:19;8.57;;;6.30;;
68680;SDS011;55836;49.858;6.756;2023-06-19T05:42:45;7.07;;;6.37;;
68680;SDS011;55836;49.858;6.756;2023-06-19T05:45:11;7.10;;;6.23;;
68680;SDS011;55836;49.858;6.756;2023-06-19T05:47:37;9.43;;;6.63;;
68680;SDS011;55836;49.858;6.756;2023-06-19T05:50:05;7.53;;;6.40;;
68680;SDS011;55836;49.858;6.756;2023-06-19T05:52:31;8.93;;;6.40;;
68680;SDS011;55836;49.858;6.756;2023-06-19T05:54:57;7.23;;;6.17;;
68680;SDS011;55836;49.858;6.756;2023-06-19T05:57:24;10.27;;;6.43;;
68680;SDS011;55836;49.858;6.756;2023-06-19T05:59:50;8.37;;;6.50;;
68680;SDS011;55836;49.858;6.756;2023-06-19T06:02:17;6.87;;;6.10;;
68680;SDS011;55836;49.858;6.756;2023-06-19T06:04:43;8.03;;;6.10;;
68680;SDS011;55836;49.858;6.756;2023-06-19T06:07:09;6.87;;;6.17;;
68680;SDS011;55836;49.858;6.756;2023-06-19T06:09:36;10.07;;;6.00;;
68680;SDS011;55836;49.858;6.756;2023-06-19T06:12:05;7.40;;;5.87;;
68680;SDS011;55836;49.858;6.756;2023-06-19T06:14:31;6.67;;;5.93;;
68680;SDS011;55836;49.858;6.756;2023-06-19T06:16:57;8.53;;;6.20;;
68680;SDS011;55836;49.858;6.756;2023-06-19T06:19:23;7.63;;;5.87;;
68680;SDS011;55836;49.858;6.756;2023-06-19T06:21:49;6.80;;;6.13;;
68680;SDS011;55836;49.858;6.756;2023-06-19T06:24:15;7.60;;;6.40;;
68680;SDS011;55836;49.858;6.756;2023-06-19T06:26:42;8.17;;;5.97;;
68680;SDS011;55836;49.858;6.756;2023-06-19T06:29:08;5.97;;;5.37;;
68680;SDS011;55836;49.858;6.756;2023-06-19T06:31:34;5.83;;;5.23;;
68680;SDS011;55836;49.858;6.756;2023-06-19T06:34:00;7.40;;;6.03;;
68680;SDS011;55836;49.858;6.756;2023-06-19T06:36:26;8.30;;;6.17;;
68680;SDS011;55836;49.858;6.756;2023-06-19T06:38:52;7.20;;;6.00;;
68680;SDS011;55836;49.858;6.756;2023-06-19T06:41:18;7.37;;;5.33;;
68680;SDS011;55836;49.858;6.756;2023-06-19T06:43:44;7.33;;;5.13;;
68680;SDS011;55836;49.858;6.756;2023-06-19T06:46:10;6.70;;;5.13;;
68680;SDS011;55836;49.858;6.756;2023-06-19T06:48:36;6.47;;;5.73;;
68680;SDS011;55836;49.858;6.756;2023-06-19T06:51:03;9.17;;;5.70;;
68680;SDS011;55836;49.858;6.756;2023-06-19T06:53:29;6.03;;;5.13;;
68680;SDS011;55836;49.858;6.756;2023-06-19T06:55:58;7.70;;;5.80;;
68680;SDS011;55836;49.858;6.756;2023-06-19T06:58:25;5.40;;;4.83;;
68680;SDS011;55836;49.858;6.756;2023-06-19T07:00:51;7.27;;;5.07;;
68680;SDS011;55836;49.858;6.756;2023-06-19T07:03:17;8.33;;;5.03;;
68680;SDS011;55836;49.858;6.756;2023-06-19T07:05:43;8.83;;;5.33;;
68680;SDS011;55836;49.858;6.756;2023-06-19T07:08:09;6.43;;;4.80;;
68680;SDS011;55836;49.858;6.756;2023-06-19T07:10:35;8.17;;;4.50;;
68680;SDS011;55836;49.858;6.756;2023-06-19T07:13:01;6.70;;;4.03;;
68680;SDS011;55836;49.858;6.756;2023-06-19T07:15:27;4.33;;;3.60;;
68680;SDS011;55836;49.858;6.756;2023-06-19T07:17:53;4.00;;;3.53;;
68680;SDS011;55836;49.858;6.756;2023-06-19T07:20:19;4.70;;;3.63;;
68680;SDS011;55836;49.858;6.756;2023-06-19T07:22:46;4.67;;;2.90;;
68680;SDS011;55836;49.858;6.756;2023-06-19T07:25:15;3.47;;;2.80;;
68680;SDS011;55836;49.858;6.756;2023-06-19T07:27:41;3.13;;;2.80;;
68680;SDS011;55836;49.858;6.756;2023-06-19T07:30:07;2.90;;;2.67;;
68680;SDS011;55836;49.858;6.756;2023-06-19T07:32:33;4.40;;;3.27;;
68680;SDS011;55836;49.858;6.756;2023-06-19T07:35:02;3.57;;;2.60;;
68680;SDS011;55836;49.858;6.756;2023-06-19T07:37:28;3.00;;;2.70;;
68680;SDS011;55836;49.858;6.756;2023-06-19T07:39:54;3.03;;;2.70;;
68680;SDS011;55836;49.858;6.756;2023-06-19T07:42:21;4.00;;;2.50;;
68680;SDS011;55836;49.858;6.756;2023-06-19T07:44:47;2.97;;;2.20;;
68680;SDS011;55836;49.858;6.756;2023-06-19T07:47:13;3.10;;;2.33;;
68680;SDS011;55836;49.858;6.756;2023-06-19T07:49:40;2.97;;;2.53;;
68680;SDS011;55836;49.858;6.756;2023-06-19T07:52:06;3.80;;;2.40;;
68680;SDS011;55836;49.858;6.756;2023-06-19T07:54:34;2.40;;;2.20;;
68680;SDS011;55836;49.858;6.756;2023-06-19T07:57:00;6.13;;;2.90;;
68680;SDS011;55836;49.858;6.756;2023-06-19T07:59:26;3.00;;;2.60;;
68680;SDS011;55836;49.858;6.756;2023-06-19T08:01:52;5.40;;;3.03;;
68680;SDS011;55836;49.858;6.756;2023-06-19T08:04:18;4.07;;;2.87;;
68680;SDS011;55836;49.858;6.756;2023-06-19T08:06:44;3.93;;;2.60;;
68680;SDS011;55836;49.858;6.756;2023-06-19T08:09:10;3.17;;;2.87;;
68680;SDS011;55836;49.858;6.756;2023-06-19T08:11:36;2.83;;;2.60;;
68680;SDS011;55836;49.858;6.756;2023-06-19T08:14:02;3.43;;;3.13;;
68680;SDS011;55836;49.858;6.756;2023-06-19T08:16:28;3.40;;;2.63;;
68680;SDS011;55836;49.858;6.756;2023-06-19T08:18:54;3.90;;;3.00;;
68680;SDS011;55836;49.858;6.756;2023-06-19T08:21:20;2.43;;;2.23;;
68680;SDS011;55836;49.858;6.756;2023-06-19T08:23:49;6.33;;;3.83;;
68680;SDS011;55836;49.858;6.756;2023-06-19T08:26:15;2.70;;;2.50;;
68680;SDS011;55836;49.858;6.756;2023-06-19T08:28:42;3.53;;;2.70;;
68680;SDS011;55836;49.858;6.756;2023-06-19T08:31:09;3.20;;;2.90;;
68680;SDS011;55836;49.858;6.756;2023-06-19T08:33:35;3.20;;;2.90;;
68680;SDS011;55836;49.858;6.756;2023-06-19T08:36:02;5.53;;;2.57;;
68680;SDS011;55836;49.858;6.756;2023-06-19T08:38:28;4.07;;;2.90;;
68680;SDS011;55836;49.858;6.756;2023-06-19T08:40:54;3.60;;;3.20;;
68680;SDS011;55836;49.858;6.756;2023-06-19T08:43:20;3.97;;;3.00;;
68680;SDS011;55836;49.858;6.756;2023-06-19T08:48:47;3.30;;;3.00;;
68680;SDS011;55836;49.858;6.756;2023-06-19T08:51:13;3.73;;;3.20;;
68680;SDS011;55836;49.858;6.756;2023-06-19T08:53:48;4.00;;;3.60;;
68680;SDS011;55836;49.858;6.756;2023-06-19T08:56:16;3.73;;;3.27;;
68680;SDS011;55836;49.858;6.756;2023-06-19T08:58:42;3.57;;;3.27;;
68680;SDS011;55836;49.858;6.756;2023-06-19T09:01:08;3.20;;;2.80;;
68680;SDS011;55836;49.858;6.756;2023-06-19T09:03:34;4.07;;;3.67;;
68680;SDS011;55836;49.858;6.756;2023-06-19T09:06:03;4.63;;;3.30;;
68680;SDS011;55836;49.858;6.756;2023-06-19T09:08:29;3.90;;;3.33;;
68680;SDS011;55836;49.858;6.756;2023-06-19T09:11:00;3.13;;;2.83;;
68680;SDS011;55836;49.858;6.756;2023-06-19T09:13:26;4.60;;;3.50;;
68680;SDS011;55836;49.858;6.756;2023-06-19T09:16:02;4.37;;;3.40;;
68680;SDS011;55836;49.858;6.756;2023-06-19T09:18:29;4.70;;;3.80;;
68680;SDS011;55836;49.858;6.756;2023-06-19T09:20:56;4.00;;;3.60;;
68680;SDS011;55836;49.858;6.756;2023-06-19T09:23:23;3.80;;;3.40;;
68680;SDS011;55836;49.858;6.756;2023-06-19T09:25:49;3.57;;;3.27;;
68680;SDS011;55836;49.858;6.756;2023-06-19T09:28:19;3.93;;;3.43;;
68680;SDS011;55836;49.858;6.756;2023-06-19T09:30:55;4.10;;;3.70;;
68680;SDS011;55836;49.858;6.756;2023-06-19T09:33:22;4.03;;;3.50;;
68680;SDS011;55836;49.858;6.756;2023-06-19T09:35:49;4.40;;;3.40;;
68680;SDS011;55836;49.858;6.756;2023-06-19T09:38:16;4.10;;;3.20;;
68680;SDS011;55836;49.858;6.756;2023-06-19T09:40:46;4.10;;;3.53;;
68680;SDS011;55836;49.858;6.756;2023-06-19T09:43:17;4.17;;;3.83;;
68680;SDS011;55836;49.858;6.756;2023-06-19T09:45:46;4.00;;;3.60;;
68680;SDS011;55836;49.858;6.756;2023-06-19T09:48:15;4.20;;;3.30;;
68680;SDS011;55836;49.858;6.756;2023-06-19T09:50:45;4.53;;;3.30;;
68680;SDS011;55836;49.858;6.756;2023-06-19T09:53:13;5.40;;;3.60;;
68680;SDS011;55836;49.858;6.756;2023-06-19T09:55:39;4.20;;;3.23;;
68680;SDS011;55836;49.858;6.756;2023-06-19T09:58:05;4.33;;;3.80;;
68680;SDS011;55836;49.858;6.756;2023-06-19T10:00:32;4.30;;;3.30;;
68680;SDS011;55836;49.858;6.756;2023-06-19T10:03:00;6.73;;;3.93;;
68680;SDS011;55836;49.858;6.756;2023-06-19T10:05:29;4.23;;;3.87;;
68680;SDS011;55836;49.858;6.756;2023-06-19T10:07:55;4.23;;;3.80;;
68680;SDS011;55836;49.858;6.756;2023-06-19T10:10:26;4.23;;;3.57;;
68680;SDS011;55836;49.858;6.756;2023-06-19T10:12:57;5.03;;;4.57;;
68680;SDS011;55836;49.858;6.756;2023-06-19T10:15:24;5.20;;;3.77;;
68680;SDS011;55836;49.858;6.756;2023-06-19T10:17:51;4.87;;;4.47;;
68680;SDS011;55836;49.858;6.756;2023-06-19T10:20:20;4.27;;;3.87;;
68680;SDS011;55836;49.858;6.756;2023-06-19T10:22:50;4.77;;;4.37;;
68680;SDS011;55836;49.858;6.756;2023-06-19T10:25:20;5.10;;;4.43;;
68680;SDS011;55836;49.858;6.756;2023-06-19T10:27:46;4.30;;;4.00;;
68680;SDS011;55836;49.858;6.756;2023-06-19T10:30:19;5.00;;;4.50;;
68680;SDS011;55836;49.858;6.756;2023-06-19T10:32:45;4.87;;;4.20;;
68680;SDS011;55836;49.858;6.756;2023-06-19T10:35:12;4.03;;;3.73;;
68680;SDS011;55836;49.858;6.756;2023-06-19T10:37:38;4.30;;;3.90;;
68680;SDS011;55836;49.858;6.756;2023-06-19T10:40:05;4.40;;;3.53;;
68680;SDS011;55836;49.858;6.756;2023-06-19T10:42:34;6.30;;;4.00;;
68680;SDS011;55836;49.858;6.756;2023-06-19T10:45:07;4.47;;;3.80;;
68680;SDS011;55836;49.858;6.756;2023-06-19T10:47:42;4.07;;;3.67;;
68680;SDS011;55836;49.858;6.756;2023-06-19T10:50:13;4.80;;;4.07;;
68680;SDS011;55836;49.858;6.756;2023-06-19T10:52:42;5.07;;;3.27;;
68680;SDS011;55836;49.858;6.756;2023-06-19T10:55:09;4.60;;;4.20;;
68680;SDS011;55836;49.858;6.756;2023-06-19T10:57:35;4.47;;;3.90;;
68680;SDS011;55836;49.858;6.756;2023-06-19T11:00:02;4.10;;;3.67;;
68680;SDS011;55836;49.858;6.756;2023-06-19T11:02:37;3.90;;;3.50;;
68680;SDS011;55836;49.858;6.756;2023-06-19T11:05:05;4.40;;;3.87;;
68680;SDS011;55836;49.858;6.756;2023-06-19T11:07:31;4.70;;;3.47;;
68680;SDS011;55836;49.858;6.756;2023-06-19T11:09:57;4.27;;;3.90;;
68680;SDS011;55836;49.858;6.756;2023-06-19T11:12:23;4.53;;;4.13;;
68680;SDS011;55836;49.858;6.756;2023-06-19T11:14:50;4.67;;;3.83;;
68680;SDS011;55836;49.858;6.756;2023-06-19T11:17:16;3.90;;;3.30;;
68680;SDS011;55836;49.858;6.756;2023-06-19T11:19:49;4.03;;;3.40;;
68680;SDS011;55836;49.858;6.756;2023-06-19T11:22:15;3.53;;;3.10;;
68680;SDS011;55836;49.858;6.756;2023-06-19T11:24:44;4.57;;;3.10;;
68680;SDS011;55836;49.858;6.756;2023-06-19T11:27:21;4.73;;;3.30;;
68680;SDS011;55836;49.858;6.756;2023-06-19T11:29:56;3.60;;;3.30;;
68680;SDS011;55836;49.858;6.756;2023-06-19T11:32:35;3.70;;;3.37;;
68680;SDS011;55836;49.858;6.756;2023-06-19T11:35:09;4.60;;;3.40;;
68680;SDS011;55836;49.858;6.756;2023-06-19T11:37:36;3.90;;;3.17;;
68680;SDS011;55836;49.858;6.756;2023-06-19T11:40:02;4.43;;;3.20;;
68680;SDS011;55836;49.858;6.756;2023-06-19T11:42:43;3.97;;;3.67;;
68680;SDS011;55836;49.858;6.756;2023-06-19T11:45:09;5.63;;;3.33;;
68680;SDS011;55836;49.858;6.756;2023-06-19T11:47:35;3.70;;;3.40;;
68680;SDS011;55836;49.858;6.756;2023-06-19T11:50:03;3.47;;;3.17;;
68680;SDS011;55836;49.858;6.756;2023-06-19T11:52:29;3.97;;;3.60;;
68680;SDS011;55836;49.858;6.756;2023-06-19T11:54:56;3.70;;;3.40;;
68680;SDS011;55836;49.858;6.756;2023-06-19T11:57:22;3.70;;;3.20;;
68680;SDS011;55836;49.858;6.756;2023-06-19T11:59:48;3.93;;;3.30;;
68680;SDS011;55836;49.858;6.756;2023-06-19T12:02:16;3.60;;;2.87;;
68680;SDS011;55836;49.858;6.756;2023-06-19T12:04:42;3.67;;;2.97;;
68680;SDS011;55836;49.858;6.756;2023-06-19T12:07:08;3.50;;;3.20;;
68680;SDS011;55836;49.858;6.756;2023-06-19T12:09:34;3.73;;;3.33;;
68680;SDS011;55836;49.858;6.756;2023-06-19T12:12:00;4.43;;;3.17;;
68680;SDS011;55836;49.858;6.756;2023-06-19T12:14:27;3.23;;;2.90;;
68680;SDS011;55836;49.858;6.756;2023-06-19T12:16:55;3.33;;;3.07;;
68680;SDS011;55836;49.858;6.756;2023-06-19T12:19:21;3.20;;;2.90;;
68680;SDS011;55836;49.858;6.756;2023-06-19T12:21:47;4.23;;;2.53;;
68680;SDS011;55836;49.858;6.756;2023-06-19T12:24:13;2.87;;;2.67;;
68680;SDS011;55836;49.858;6.756;2023-06-19T12:26:39;4.10;;;2.87;;
68680;SDS011;55836;49.858;6.756;2023-06-19T12:29:06;2.40;;;2.20;;
68680;SDS011;55836;49.858;6.756;2023-06-19T12:31:33;3.43;;;2.77;;
68680;SDS011;55836;49.858;6.756;2023-06-19T12:33:59;3.40;;;3.10;;
68680;SDS011;55836;49.858;6.756;2023-06-19T12:36:28;4.70;;;3.10;;
68680;SDS011;55836;49.858;6.756;2023-06-19T12:38:58;3.40;;;3.03;;
68680;SDS011;55836;49.858;6.756;2023-06-19T12:41:24;3.27;;;2.97;;
68680;SDS011;55836;49.858;6.756;2023-06-19T12:43:50;3.80;;;2.80;;
68680;SDS011;55836;49.858;6.756;2023-06-19T12:46:16;5.40;;;3.13;;
68680;SDS011;55836;49.858;6.756;2023-06-19T12:48:42;3.50;;;2.83;;
68680;SDS011;55836;49.858;6.756;2023-06-19T12:51:08;4.93;;;2.87;;
68680;SDS011;55836;49.858;6.756;2023-06-19T12:53:34;3.27;;;2.93;;
68680;SDS011;55836;49.858;6.756;2023-06-19T12:56:00;3.13;;;2.83;;
68680;SDS011;55836;49.858;6.756;2023-06-19T12:58:26;5.47;;;3.00;;
68680;SDS011;55836;49.858;6.756;2023-06-19T13:00:53;2.83;;;2.47;;
68680;SDS011;55836;49.858;6.756;2023-06-19T13:03:19;3.17;;;2.80;;
68680;SDS011;55836;49.858;6.756;2023-06-19T13:05:46;3.13;;;2.60;;
68680;SDS011;55836;49.858;6.756;2023-06-19T13:08:12;3.10;;;2.80;;
68680;SDS011;55836;49.858;6.756;2023-06-19T13:10:40;3.97;;;2.80;;
68680;SDS011;55836;49.858;6.756;2023-06-19T13:13:07;3.43;;;2.83;;
68680;SDS011;55836;49.858;6.756;2023-06-19T13:15:35;3.33;;;2.80;;
68680;SDS011;55836;49.858;6.756;2023-06-19T13:18:01;3.67;;;2.60;;
68680;SDS011;55836;49.858;6.756;2023-06-19T13:20:27;4.97;;;3.20;;
68680;SDS011;55836;49.858;6.756;2023-06-19T13:22:56;3.80;;;2.90;;
68680;SDS011;55836;49.858;6.756;2023-06-19T13:25:22;3.10;;;2.90;;
68680;SDS011;55836;49.858;6.756;2023-06-19T13:27:48;4.33;;;3.03;;
68680;SDS011;55836;49.858;6.756;2023-06-19T13:30:14;4.57;;;3.17;;
68680;SDS011;55836;49.858;6.756;2023-06-19T13:32:41;4.70;;;3.30;;
68680;SDS011;55836;49.858;6.756;2023-06-19T13:35:07;3.57;;;2.77;;
68680;SDS011;55836;49.858;6.756;2023-06-19T13:37:34;4.30;;;3.00;;
68680;SDS011;55836;49.858;6.756;2023-06-19T13:40:01;4.20;;;3.10;;
68680;SDS011;55836;49.858;6.756;2023-06-19T13:42:30;5.37;;;3.27;;
68680;SDS011;55836;49.858;6.756;2023-06-19T13:44:56;3.13;;;2.73;;
68680;SDS011;55836;49.858;6.756;2023-06-19T13:47:22;4.27;;;2.67;;
68680;SDS011;55836;49.858;6.756;2023-06-19T13:49:52;4.03;;;3.00;;
68680;SDS011;55836;49.858;6.756;2023-06-19T13:52:18;5.37;;;3.07;;
68680;SDS011;55836;49.858;6.756;2023-06-19T13:54:45;4.90;;;2.70;;
68680;SDS011;55836;49.858;6.756;2023-06-19T13:57:11;3.83;;;2.67;;
68680;SDS011;55836;49.858;6.756;2023-06-19T13:59:37;4.07;;;3.27;;
68680;SDS011;55836;49.858;6.756;2023-06-19T14:02:03;4.30;;;2.77;;
68680;SDS011;55836;49.858;6.756;2023-06-19T14:04:29;3.57;;;3.10;;
68680;SDS011;55836;49.858;6.756;2023-06-19T14:06:56;4.97;;;2.90;;
68680;SDS011;55836;49.858;6.756;2023-06-19T14:09:22;4.37;;;2.67;;
68680;SDS011;55836;49.858;6.756;2023-06-19T14:11:48;4.97;;;2.77;;
68680;SDS011;55836;49.858;6.756;2023-06-19T14:14:14;3.03;;;2.60;;
68680;SDS011;55836;49.858;6.756;2023-06-19T14:16:40;3.60;;;2.90;;
68680;SDS011;55836;49.858;6.756;2023-06-19T14:19:06;4.87;;;2.70;;
68680;SDS011;55836;49.858;6.756;2023-06-19T14:21:33;4.97;;;2.70;;
68680;SDS011;55836;49.858;6.756;2023-06-19T14:23:59;3.17;;;2.63;;
68680;SDS011;55836;49.858;6.756;2023-06-19T14:26:25;3.20;;;2.50;;
68680;SDS011;55836;49.858;6.756;2023-06-19T14:28:51;3.70;;;2.40;;
68680;SDS011;55836;49.858;6.756;2023-06-19T14:31:22;6.40;;;2.80;;
68680;SDS011;55836;49.858;6.756;2023-06-19T14:33:48;3.40;;;2.80;;
68680;SDS011;55836;49.858;6.756;2023-06-19T14:36:14;4.60;;;3.13;;
68680;SDS011;55836;49.858;6.756;2023-06-19T14:38:40;3.20;;;2.90;;
68680;SDS011;55836;49.858;6.756;2023-06-19T14:41:06;3.53;;;2.70;;
68680;SDS011;55836;49.858;6.756;2023-06-19T14:43:32;3.37;;;2.80;;
68680;SDS011;55836;49.858;6.756;2023-06-19T14:45:59;4.43;;;3.03;;
68680;SDS011;55836;49.858;6.756;2023-06-19T14:48:25;3.10;;;2.80;;